sensor_id;sensor_type;location;lat;lon;timestamp;P1;durP1;ratioP1;P2;durP2;ratioP2
21758;SDS011;11041;50.854;20.580;2022-11-15T00:01:01;66.63;;;31.52;;
21758;SDS011;11041;50.854;20.580;2022-11-15T00:03:40;65.70;;;30.63;;
21758;SDS011;11041;50.854;20.580;2022-11-15T00:06:06;66.63;;;30.67;;
21758;SDS011;11041;50.854;20.580;2022-11-15T00:08:34;64.38;;;30.98;;
21758;SDS011;11041;50.854;20.580;2022-11-15T00:11:15;74.63;;;32.28;;
21758;SDS011;11041;50.854;20.580;2022-11-15T00:14:03;68.05;;;31.85;;
21758;SDS011;11041;50.854;20.580;2022-11-15T00:16:32;66.22;;;30.45;;
21758;SDS011;11041;50.854;20.580;2022-11-15T00:19:04;79.35;;;32.05;;
21758;SDS011;11041;50.854;20.580;2022-11-15T00:21:30;67.78;;;31.10;;
21758;SDS011;11041;50.854;20.580;2022-11-15T00:23:58;66.70;;;27.38;;
21758;SDS011;11041;50.854;20.580;2022-11-15T00:26:24;86.40;;;30.67;;
21758;SDS011;11041;50.854;20.580;2022-11-15T00:28:54;68.72;;;30.17;;
21758;SDS011;11041;50.854;20.580;2022-11-15T00:31:20;77.47;;;29.52;;
21758;SDS011;11041;50.854;20.580;2022-11-15T00:33:47;80.13;;;27.27;;
21758;SDS011;11041;50.854;20.580;2022-11-15T00:36:13;65.47;;;26.90;;
21758;SDS011;11041;50.854;20.580;2022-11-15T00:38:40;62.85;;;26.35;;
21758;SDS011;11041;50.854;20.580;2022-11-15T00:41:07;76.32;;;28.88;;
21758;SDS011;11041;50.854;20.580;2022-11-15T00:43:34;72.35;;;27.23;;
21758;SDS011;11041;50.854;20.580;2022-11-15T00:46:00;67.20;;;27.02;;
21758;SDS011;11041;50.854;20.580;2022-11-15T00:48:28;71.30;;;26.80;;
21758;SDS011;11041;50.854;20.580;2022-11-15T00:50:55;89.03;;;27.65;;
21758;SDS011;11041;50.854;20.580;2022-11-15T00:53:21;63.90;;;27.45;;
21758;SDS011;11041;50.854;20.580;2022-11-15T00:55:48;68.13;;;25.95;;
21758;SDS011;11041;50.854;20.580;2022-11-15T00:58:14;72.22;;;24.88;;
21758;SDS011;11041;50.854;20.580;2022-11-15T01:00:40;61.88;;;26.48;;
21758;SDS011;11041;50.854;20.580;2022-11-15T01:03:07;81.80;;;27.75;;
21758;SDS011;11041;50.854;20.580;2022-11-15T01:05:33;75.80;;;28.73;;
21758;SDS011;11041;50.854;20.580;2022-11-15T01:08:03;69.50;;;28.33;;
21758;SDS011;11041;50.854;20.580;2022-11-15T01:10:30;79.32;;;29.08;;
21758;SDS011;11041;50.854;20.580;2022-11-15T01:12:56;67.57;;;28.15;;
21758;SDS011;11041;50.854;20.580;2022-11-15T01:15:23;87.32;;;27.92;;
21758;SDS011;11041;50.854;20.580;2022-11-15T01:17:49;70.00;;;27.02;;
21758;SDS011;11041;50.854;20.580;2022-11-15T01:20:15;85.10;;;28.20;;
21758;SDS011;11041;50.854;20.580;2022-11-15T01:22:42;92.50;;;29.80;;
21758;SDS011;11041;50.854;20.580;2022-11-15T01:25:08;84.88;;;27.08;;
21758;SDS011;11041;50.854;20.580;2022-11-15T01:27:35;85.93;;;26.80;;
21758;SDS011;11041;50.854;20.580;2022-11-15T01:30:01;61.63;;;26.30;;
21758;SDS011;11041;50.854;20.580;2022-11-15T01:32:29;64.38;;;25.98;;
21758;SDS011;11041;50.854;20.580;2022-11-15T01:34:55;66.97;;;26.10;;
21758;SDS011;11041;50.854;20.580;2022-11-15T01:37:22;63.72;;;25.20;;
21758;SDS011;11041;50.854;20.580;2022-11-15T01:39:48;62.28;;;24.65;;
21758;SDS011;11041;50.854;20.580;2022-11-15T01:42:15;70.28;;;24.92;;
21758;SDS011;11041;50.854;20.580;2022-11-15T01:44:43;64.32;;;24.25;;
21758;SDS011;11041;50.854;20.580;2022-11-15T01:52:35;63.53;;;22.83;;
21758;SDS011;11041;50.854;20.580;2022-11-15T01:55:21;84.75;;;22.60;;
21758;SDS011;11041;50.854;20.580;2022-11-15T01:57:54;61.92;;;23.23;;
21758;SDS011;11041;50.854;20.580;2022-11-15T02:00:28;58.80;;;21.80;;
21758;SDS011;11041;50.854;20.580;2022-11-15T02:02:56;48.38;;;21.80;;
21758;SDS011;11041;50.854;20.580;2022-11-15T02:05:23;60.83;;;21.15;;
21758;SDS011;11041;50.854;20.580;2022-11-15T02:07:50;51.58;;;20.10;;
21758;SDS011;11041;50.854;20.580;2022-11-15T02:10:19;49.22;;;19.98;;
21758;SDS011;11041;50.854;20.580;2022-11-15T02:12:49;39.67;;;19.70;;
21758;SDS011;11041;50.854;20.580;2022-11-15T02:15:18;67.15;;;20.23;;
21758;SDS011;11041;50.854;20.580;2022-11-15T02:26:57;51.85;;;19.80;;
21758;SDS011;11041;50.854;20.580;2022-11-15T02:32:51;61.10;;;19.55;;
21758;SDS011;11041;50.854;20.580;2022-11-15T02:41:52;52.40;;;18.27;;
21758;SDS011;11041;50.854;20.580;2022-11-15T02:44:31;47.25;;;19.10;;
21758;SDS011;11041;50.854;20.580;2022-11-15T02:47:11;47.40;;;18.08;;
21758;SDS011;11041;50.854;20.580;2022-11-15T02:49:52;48.58;;;17.67;;
21758;SDS011;11041;50.854;20.580;2022-11-15T02:52:24;46.28;;;17.50;;
21758;SDS011;11041;50.854;20.580;2022-11-15T02:54:55;42.05;;;17.52;;
21758;SDS011;11041;50.854;20.580;2022-11-15T03:00:35;51.00;;;17.48;;
21758;SDS011;11041;50.854;20.580;2022-11-15T03:06:42;53.47;;;17.77;;
21758;SDS011;11041;50.854;20.580;2022-11-15T03:09:42;41.22;;;17.20;;
21758;SDS011;11041;50.854;20.580;2022-11-15T03:12:38;37.10;;;15.45;;
21758;SDS011;11041;50.854;20.580;2022-11-15T03:17:54;41.63;;;15.73;;
21758;SDS011;11041;50.854;20.580;2022-11-15T03:20:32;40.05;;;15.93;;
21758;SDS011;11041;50.854;20.580;2022-11-15T03:23:06;39.75;;;16.75;;
21758;SDS011;11041;50.854;20.580;2022-11-15T03:25:38;55.78;;;15.95;;
21758;SDS011;11041;50.854;20.580;2022-11-15T03:28:13;47.78;;;16.50;;
21758;SDS011;11041;50.854;20.580;2022-11-15T03:30:49;43.60;;;18.05;;
21758;SDS011;11041;50.854;20.580;2022-11-15T03:33:19;42.88;;;17.73;;
21758;SDS011;11041;50.854;20.580;2022-11-15T03:35:48;37.83;;;17.15;;
21758;SDS011;11041;50.854;20.580;2022-11-15T03:38:24;45.10;;;17.38;;
21758;SDS011;11041;50.854;20.580;2022-11-15T03:46:50;32.88;;;14.82;;
21758;SDS011;11041;50.854;20.580;2022-11-15T03:49:33;29.20;;;13.07;;
21758;SDS011;11041;50.854;20.580;2022-11-15T03:52:06;41.55;;;12.57;;
21758;SDS011;11041;50.854;20.580;2022-11-15T03:54:35;33.42;;;13.50;;
21758;SDS011;11041;50.854;20.580;2022-11-15T03:57:02;37.63;;;13.55;;
21758;SDS011;11041;50.854;20.580;2022-11-15T03:59:28;27.30;;;12.18;;
21758;SDS011;11041;50.854;20.580;2022-11-15T04:01:55;36.58;;;12.88;;
21758;SDS011;11041;50.854;20.580;2022-11-15T04:04:21;41.13;;;14.23;;
21758;SDS011;11041;50.854;20.580;2022-11-15T04:06:47;33.55;;;14.05;;
21758;SDS011;11041;50.854;20.580;2022-11-15T04:09:14;33.88;;;15.63;;
21758;SDS011;11041;50.854;20.580;2022-11-15T04:11:40;31.63;;;13.75;;
21758;SDS011;11041;50.854;20.580;2022-11-15T04:14:07;34.42;;;14.00;;
21758;SDS011;11041;50.854;20.580;2022-11-15T04:16:33;34.67;;;14.05;;
21758;SDS011;11041;50.854;20.580;2022-11-15T04:19:00;30.23;;;13.68;;
21758;SDS011;11041;50.854;20.580;2022-11-15T04:21:45;35.33;;;14.10;;
21758;SDS011;11041;50.854;20.580;2022-11-15T04:24:29;30.63;;;13.45;;
21758;SDS011;11041;50.854;20.580;2022-11-15T04:26:56;45.70;;;14.82;;
21758;SDS011;11041;50.854;20.580;2022-11-15T04:29:22;38.95;;;14.38;;
21758;SDS011;11041;50.854;20.580;2022-11-15T04:32:02;30.55;;;14.85;;
21758;SDS011;11041;50.854;20.580;2022-11-15T04:34:30;36.40;;;13.43;;
21758;SDS011;11041;50.854;20.580;2022-11-15T04:36:58;31.35;;;13.88;;
21758;SDS011;11041;50.854;20.580;2022-11-15T04:39:43;37.25;;;13.88;;
21758;SDS011;11041;50.854;20.580;2022-11-15T04:42:10;33.65;;;13.65;;
21758;SDS011;11041;50.854;20.580;2022-11-15T04:44:36;35.78;;;12.77;;
21758;SDS011;11041;50.854;20.580;2022-11-15T04:47:03;30.77;;;13.32;;
21758;SDS011;11041;50.854;20.580;2022-11-15T04:49:30;33.42;;;15.00;;
21758;SDS011;11041;50.854;20.580;2022-11-15T04:51:56;31.85;;;13.95;;
21758;SDS011;11041;50.854;20.580;2022-11-15T04:54:23;35.28;;;13.38;;
21758;SDS011;11041;50.854;20.580;2022-11-15T04:56:50;52.33;;;14.45;;
21758;SDS011;11041;50.854;20.580;2022-11-15T04:59:16;31.02;;;14.25;;
21758;SDS011;11041;50.854;20.580;2022-11-15T05:01:43;44.65;;;15.90;;
21758;SDS011;11041;50.854;20.580;2022-11-15T05:04:09;28.55;;;14.68;;
21758;SDS011;11041;50.854;20.580;2022-11-15T05:06:48;55.17;;;14.65;;
21758;SDS011;11041;50.854;20.580;2022-11-15T05:09:17;29.05;;;12.88;;
21758;SDS011;11041;50.854;20.580;2022-11-15T05:11:45;27.88;;;13.40;;
21758;SDS011;11041;50.854;20.580;2022-11-15T05:14:13;34.90;;;13.43;;
21758;SDS011;11041;50.854;20.580;2022-11-15T05:16:40;43.55;;;14.90;;
21758;SDS011;11041;50.854;20.580;2022-11-15T05:19:08;35.45;;;14.23;;
21758;SDS011;11041;50.854;20.580;2022-11-15T05:21:35;56.28;;;14.82;;
21758;SDS011;11041;50.854;20.580;2022-11-15T05:24:02;48.75;;;15.02;;
21758;SDS011;11041;50.854;20.580;2022-11-15T05:26:29;41.95;;;14.27;;
21758;SDS011;11041;50.854;20.580;2022-11-15T05:28:57;55.75;;;15.75;;
21758;SDS011;11041;50.854;20.580;2022-11-15T05:31:25;41.58;;;14.88;;
21758;SDS011;11041;50.854;20.580;2022-11-15T05:33:52;45.85;;;15.90;;
21758;SDS011;11041;50.854;20.580;2022-11-15T05:36:27;50.10;;;15.73;;
21758;SDS011;11041;50.854;20.580;2022-11-15T05:38:59;48.70;;;16.25;;
21758;SDS011;11041;50.854;20.580;2022-11-15T05:41:27;39.53;;;15.15;;
21758;SDS011;11041;50.854;20.580;2022-11-15T05:44:07;34.20;;;14.13;;
21758;SDS011;11041;50.854;20.580;2022-11-15T05:46:39;51.53;;;15.05;;
21758;SDS011;11041;50.854;20.580;2022-11-15T05:49:13;37.58;;;14.48;;
21758;SDS011;11041;50.854;20.580;2022-11-15T05:51:47;38.17;;;12.63;;
21758;SDS011;11041;50.854;20.580;2022-11-15T05:54:15;41.05;;;14.80;;
21758;SDS011;11041;50.854;20.580;2022-11-15T05:56:43;31.15;;;13.95;;
21758;SDS011;11041;50.854;20.580;2022-11-15T05:59:10;22.98;;;11.07;;
21758;SDS011;11041;50.854;20.580;2022-11-15T06:01:37;26.55;;;12.48;;
21758;SDS011;11041;50.854;20.580;2022-11-15T06:04:05;31.63;;;12.05;;
21758;SDS011;11041;50.854;20.580;2022-11-15T06:06:32;27.98;;;12.77;;
21758;SDS011;11041;50.854;20.580;2022-11-15T06:08:58;23.33;;;11.27;;
21758;SDS011;11041;50.854;20.580;2022-11-15T06:11:25;18.38;;;11.38;;
21758;SDS011;11041;50.854;20.580;2022-11-15T06:13:51;46.05;;;12.82;;
21758;SDS011;11041;50.854;20.580;2022-11-15T06:16:18;31.60;;;12.02;;
21758;SDS011;11041;50.854;20.580;2022-11-15T06:18:45;29.30;;;11.25;;
21758;SDS011;11041;50.854;20.580;2022-11-15T06:21:12;32.92;;;12.57;;
21758;SDS011;11041;50.854;20.580;2022-11-15T06:23:38;22.02;;;11.65;;
21758;SDS011;11041;50.854;20.580;2022-11-15T06:26:05;23.30;;;12.43;;
21758;SDS011;11041;50.854;20.580;2022-11-15T06:28:31;34.75;;;12.25;;
21758;SDS011;11041;50.854;20.580;2022-11-15T06:31:03;26.15;;;11.95;;
21758;SDS011;11041;50.854;20.580;2022-11-15T06:33:32;27.70;;;12.38;;
21758;SDS011;11041;50.854;20.580;2022-11-15T06:36:05;36.90;;;12.52;;
21758;SDS011;11041;50.854;20.580;2022-11-15T06:38:39;44.72;;;12.93;;
21758;SDS011;11041;50.854;20.580;2022-11-15T06:41:07;25.58;;;12.10;;
21758;SDS011;11041;50.854;20.580;2022-11-15T06:43:35;28.85;;;13.32;;
21758;SDS011;11041;50.854;20.580;2022-11-15T06:46:04;49.65;;;13.52;;
21758;SDS011;11041;50.854;20.580;2022-11-15T06:48:32;34.33;;;13.40;;
21758;SDS011;11041;50.854;20.580;2022-11-15T06:51:00;37.85;;;13.52;;
21758;SDS011;11041;50.854;20.580;2022-11-15T06:53:30;31.58;;;14.50;;
21758;SDS011;11041;50.854;20.580;2022-11-15T06:56:00;45.40;;;13.55;;
21758;SDS011;11041;50.854;20.580;2022-11-15T06:58:32;28.65;;;12.85;;
21758;SDS011;11041;50.854;20.580;2022-11-15T07:01:03;31.80;;;14.13;;
21758;SDS011;11041;50.854;20.580;2022-11-15T07:03:36;26.08;;;13.93;;
21758;SDS011;11041;50.854;20.580;2022-11-15T07:06:05;33.33;;;13.13;;
21758;SDS011;11041;50.854;20.580;2022-11-15T07:08:33;32.33;;;13.05;;
21758;SDS011;11041;50.854;20.580;2022-11-15T07:11:02;30.70;;;14.27;;
21758;SDS011;11041;50.854;20.580;2022-11-15T07:13:34;39.65;;;13.18;;
21758;SDS011;11041;50.854;20.580;2022-11-15T07:16:03;30.80;;;13.45;;
21758;SDS011;11041;50.854;20.580;2022-11-15T07:18:36;37.08;;;13.65;;
21758;SDS011;11041;50.854;20.580;2022-11-15T07:21:06;23.58;;;13.38;;
21758;SDS011;11041;50.854;20.580;2022-11-15T07:23:36;27.35;;;13.55;;
21758;SDS011;11041;50.854;20.580;2022-11-15T07:26:04;26.20;;;12.95;;
21758;SDS011;11041;50.854;20.580;2022-11-15T07:28:32;30.35;;;12.68;;
21758;SDS011;11041;50.854;20.580;2022-11-15T07:31:03;36.10;;;13.00;;
21758;SDS011;11041;50.854;20.580;2022-11-15T07:33:31;32.65;;;13.65;;
21758;SDS011;11041;50.854;20.580;2022-11-15T07:36:02;23.00;;;12.50;;
21758;SDS011;11041;50.854;20.580;2022-11-15T07:38:32;36.85;;;16.38;;
21758;SDS011;11041;50.854;20.580;2022-11-15T07:41:02;21.23;;;11.65;;
21758;SDS011;11041;50.854;20.580;2022-11-15T07:43:31;29.17;;;17.15;;
21758;SDS011;11041;50.854;20.580;2022-11-15T07:46:03;26.08;;;16.80;;
21758;SDS011;11041;50.854;20.580;2022-11-15T07:48:35;19.05;;;12.13;;
21758;SDS011;11041;50.854;20.580;2022-11-15T07:51:03;20.05;;;11.43;;
21758;SDS011;11041;50.854;20.580;2022-11-15T07:53:29;24.42;;;11.82;;
21758;SDS011;11041;50.854;20.580;2022-11-15T07:55:56;19.50;;;11.65;;
21758;SDS011;11041;50.854;20.580;2022-11-15T07:58:22;20.63;;;11.50;;
21758;SDS011;11041;50.854;20.580;2022-11-15T08:00:49;27.17;;;11.52;;
21758;SDS011;11041;50.854;20.580;2022-11-15T08:03:16;17.08;;;11.18;;
21758;SDS011;11041;50.854;20.580;2022-11-15T08:05:43;20.30;;;11.45;;
21758;SDS011;11041;50.854;20.580;2022-11-15T08:08:17;15.50;;;10.70;;
21758;SDS011;11041;50.854;20.580;2022-11-15T08:10:44;16.77;;;11.27;;
21758;SDS011;11041;50.854;20.580;2022-11-15T08:13:11;17.70;;;10.82;;
21758;SDS011;11041;50.854;20.580;2022-11-15T08:15:39;18.10;;;11.13;;
21758;SDS011;11041;50.854;20.580;2022-11-15T08:18:08;17.30;;;11.73;;
21758;SDS011;11041;50.854;20.580;2022-11-15T08:20:38;17.50;;;12.02;;
21758;SDS011;11041;50.854;20.580;2022-11-15T08:23:06;17.52;;;11.50;;
21758;SDS011;11041;50.854;20.580;2022-11-15T08:25:35;18.92;;;11.77;;
21758;SDS011;11041;50.854;20.580;2022-11-15T08:28:04;19.92;;;11.85;;
21758;SDS011;11041;50.854;20.580;2022-11-15T08:30:39;16.92;;;11.75;;
21758;SDS011;11041;50.854;20.580;2022-11-15T08:33:12;18.83;;;12.95;;
21758;SDS011;11041;50.854;20.580;2022-11-15T08:35:40;20.73;;;12.68;;
21758;SDS011;11041;50.854;20.580;2022-11-15T08:38:09;18.77;;;12.57;;
21758;SDS011;11041;50.854;20.580;2022-11-15T08:40:36;23.20;;;14.02;;
21758;SDS011;11041;50.854;20.580;2022-11-15T08:43:03;20.88;;;13.57;;
21758;SDS011;11041;50.854;20.580;2022-11-15T08:45:30;22.50;;;13.15;;
21758;SDS011;11041;50.854;20.580;2022-11-15T08:48:00;23.27;;;15.23;;
21758;SDS011;11041;50.854;20.580;2022-11-15T08:50:28;25.67;;;14.32;;
21758;SDS011;11041;50.854;20.580;2022-11-15T08:52:55;23.15;;;14.35;;
21758;SDS011;11041;50.854;20.580;2022-11-15T08:55:21;21.73;;;14.43;;
21758;SDS011;11041;50.854;20.580;2022-11-15T08:57:48;20.50;;;14.10;;
21758;SDS011;11041;50.854;20.580;2022-11-15T09:00:14;20.08;;;13.98;;
21758;SDS011;11041;50.854;20.580;2022-11-15T09:02:42;23.85;;;15.32;;
21758;SDS011;11041;50.854;20.580;2022-11-15T09:05:08;30.33;;;16.00;;
21758;SDS011;11041;50.854;20.580;2022-11-15T09:07:35;32.40;;;17.10;;
21758;SDS011;11041;50.854;20.580;2022-11-15T09:10:02;33.38;;;17.90;;
21758;SDS011;11041;50.854;20.580;2022-11-15T09:12:29;34.83;;;19.85;;
21758;SDS011;11041;50.854;20.580;2022-11-15T09:14:55;34.40;;;18.65;;
21758;SDS011;11041;50.854;20.580;2022-11-15T09:17:22;38.33;;;20.13;;
21758;SDS011;11041;50.854;20.580;2022-11-15T09:19:48;39.08;;;20.15;;
21758;SDS011;11041;50.854;20.580;2022-11-15T09:22:15;35.75;;;18.33;;
21758;SDS011;11041;50.854;20.580;2022-11-15T09:24:41;47.88;;;22.80;;
21758;SDS011;11041;50.854;20.580;2022-11-15T09:27:07;39.35;;;21.27;;
21758;SDS011;11041;50.854;20.580;2022-11-15T09:29:35;44.08;;;21.33;;
21758;SDS011;11041;50.854;20.580;2022-11-15T09:32:01;51.83;;;23.90;;
21758;SDS011;11041;50.854;20.580;2022-11-15T09:34:28;49.85;;;24.42;;
21758;SDS011;11041;50.854;20.580;2022-11-15T09:36:54;43.22;;;22.70;;
21758;SDS011;11041;50.854;20.580;2022-11-15T09:39:22;53.15;;;25.10;;
21758;SDS011;11041;50.854;20.580;2022-11-15T09:41:50;55.78;;;25.95;;
21758;SDS011;11041;50.854;20.580;2022-11-15T09:45:28;64.10;;;29.05;;
21758;SDS011;11041;50.854;20.580;2022-11-15T09:50:50;46.30;;;20.75;;
21758;SDS011;11041;50.854;20.580;2022-11-15T09:53:57;45.00;;;20.88;;
21758;SDS011;11041;50.854;20.580;2022-11-15T09:56:22;41.72;;;22.00;;
21758;SDS011;11041;50.854;20.580;2022-11-15T09:59:02;47.40;;;22.88;;
21758;SDS011;11041;50.854;20.580;2022-11-15T10:05:10;50.70;;;25.05;;
21758;SDS011;11041;50.854;20.580;2022-11-15T10:11:06;48.30;;;25.75;;
21758;SDS011;11041;50.854;20.580;2022-11-15T10:13:47;47.95;;;27.05;;
21758;SDS011;11041;50.854;20.580;2022-11-15T10:25:26;50.83;;;24.95;;
21758;SDS011;11041;50.854;20.580;2022-11-15T10:27:59;49.22;;;23.40;;
21758;SDS011;11041;50.854;20.580;2022-11-15T10:30:51;52.70;;;25.73;;
21758;SDS011;11041;50.854;20.580;2022-11-15T10:33:26;57.60;;;26.30;;
21758;SDS011;11041;50.854;20.580;2022-11-15T10:38:52;52.20;;;25.10;;
21758;SDS011;11041;50.854;20.580;2022-11-15T10:49:25;47.92;;;25.05;;
21758;SDS011;11041;50.854;20.580;2022-11-15T10:51:55;63.28;;;29.00;;
21758;SDS011;11041;50.854;20.580;2022-11-15T10:57:38;55.92;;;26.70;;
21758;SDS011;11041;50.854;20.580;2022-11-15T11:10:37;50.47;;;24.70;;
21758;SDS011;11041;50.854;20.580;2022-11-15T11:13:26;58.47;;;28.10;;
21758;SDS011;11041;50.854;20.580;2022-11-15T11:21:39;57.40;;;25.88;;
21758;SDS011;11041;50.854;20.580;2022-11-15T11:30:17;45.03;;;23.85;;
21758;SDS011;11041;50.854;20.580;2022-11-15T11:33:05;47.80;;;25.23;;
21758;SDS011;11041;50.854;20.580;2022-11-15T11:35:50;48.42;;;25.77;;
21758;SDS011;11041;50.854;20.580;2022-11-15T11:42:26;44.80;;;27.42;;
21758;SDS011;11041;50.854;20.580;2022-11-15T11:50:51;54.78;;;27.35;;
21758;SDS011;11041;50.854;20.580;2022-11-15T11:53:41;47.95;;;27.10;;
21758;SDS011;11041;50.854;20.580;2022-11-15T11:56:37;49.35;;;25.77;;
21758;SDS011;11041;50.854;20.580;2022-11-15T11:59:16;48.70;;;28.10;;
21758;SDS011;11041;50.854;20.580;2022-11-15T12:02:01;43.53;;;25.10;;
21758;SDS011;11041;50.854;20.580;2022-11-15T12:05:27;44.30;;;25.55;;
21758;SDS011;11041;50.854;20.580;2022-11-15T12:08:04;44.25;;;24.80;;
21758;SDS011;11041;50.854;20.580;2022-11-15T12:14:01;51.55;;;27.88;;
21758;SDS011;11041;50.854;20.580;2022-11-15T12:16:38;52.58;;;28.23;;
21758;SDS011;11041;50.854;20.580;2022-11-15T12:19:08;46.55;;;27.13;;
21758;SDS011;11041;50.854;20.580;2022-11-15T12:22:37;47.95;;;26.15;;
21758;SDS011;11041;50.854;20.580;2022-11-15T12:27:33;55.10;;;28.08;;
21758;SDS011;11041;50.854;20.580;2022-11-15T12:30:09;50.22;;;27.90;;
21758;SDS011;11041;50.854;20.580;2022-11-15T12:32:59;51.33;;;27.77;;
21758;SDS011;11041;50.854;20.580;2022-11-15T12:35:30;53.75;;;29.17;;
21758;SDS011;11041;50.854;20.580;2022-11-15T12:38:04;56.72;;;30.75;;
21758;SDS011;11041;50.854;20.580;2022-11-15T12:43:44;56.03;;;26.98;;
21758;SDS011;11041;50.854;20.580;2022-11-15T12:49:01;50.80;;;27.77;;
21758;SDS011;11041;50.854;20.580;2022-11-15T12:59:50;45.83;;;25.55;;
21758;SDS011;11041;50.854;20.580;2022-11-15T13:05:56;42.38;;;23.02;;
21758;SDS011;11041;50.854;20.580;2022-11-15T13:08:37;55.65;;;26.60;;
21758;SDS011;11041;50.854;20.580;2022-11-15T13:14:56;43.03;;;24.90;;
21758;SDS011;11041;50.854;20.580;2022-11-15T13:17:20;44.83;;;25.35;;
21758;SDS011;11041;50.854;20.580;2022-11-15T13:28:33;45.40;;;24.70;;
21758;SDS011;11041;50.854;20.580;2022-11-15T13:37:01;41.75;;;24.42;;
21758;SDS011;11041;50.854;20.580;2022-11-15T13:39:49;47.55;;;22.48;;
21758;SDS011;11041;50.854;20.580;2022-11-15T13:42:16;37.42;;;22.88;;
21758;SDS011;11041;50.854;20.580;2022-11-15T13:47:38;38.60;;;22.70;;
21758;SDS011;11041;50.854;20.580;2022-11-15T13:50:05;35.03;;;22.13;;
21758;SDS011;11041;50.854;20.580;2022-11-15T13:52:33;38.92;;;23.10;;
21758;SDS011;11041;50.854;20.580;2022-11-15T13:57:58;60.15;;;33.08;;
21758;SDS011;11041;50.854;20.580;2022-11-15T14:03:18;58.55;;;38.47;;
21758;SDS011;11041;50.854;20.580;2022-11-15T14:08:42;91.35;;;64.55;;
21758;SDS011;11041;50.854;20.580;2022-11-15T14:11:26;90.07;;;53.38;;
21758;SDS011;11041;50.854;20.580;2022-11-15T14:16:36;81.38;;;51.65;;
21758;SDS011;11041;50.854;20.580;2022-11-15T14:30:45;41.92;;;27.77;;
21758;SDS011;11041;50.854;20.580;2022-11-15T14:36:06;36.60;;;22.38;;
21758;SDS011;11041;50.854;20.580;2022-11-15T14:38:45;31.33;;;20.88;;
21758;SDS011;11041;50.854;20.580;2022-11-15T14:41:25;32.47;;;21.13;;
21758;SDS011;11041;50.854;20.580;2022-11-15T14:43:52;33.55;;;19.90;;
21758;SDS011;11041;50.854;20.580;2022-11-15T14:46:19;29.95;;;19.00;;
21758;SDS011;11041;50.854;20.580;2022-11-15T14:48:46;34.28;;;22.08;;
21758;SDS011;11041;50.854;20.580;2022-11-15T14:51:13;56.92;;;37.25;;
21758;SDS011;11041;50.854;20.580;2022-11-15T14:53:43;37.83;;;24.35;;
21758;SDS011;11041;50.854;20.580;2022-11-15T14:56:11;53.50;;;34.45;;
21758;SDS011;11041;50.854;20.580;2022-11-15T14:58:39;35.03;;;24.45;;
21758;SDS011;11041;50.854;20.580;2022-11-15T15:01:14;34.92;;;22.45;;
21758;SDS011;11041;50.854;20.580;2022-11-15T15:03:56;40.67;;;23.83;;
21758;SDS011;11041;50.854;20.580;2022-11-15T15:06:32;41.88;;;22.88;;
21758;SDS011;11041;50.854;20.580;2022-11-15T15:09:06;54.60;;;26.98;;
21758;SDS011;11041;50.854;20.580;2022-11-15T15:11:38;50.13;;;29.60;;
21758;SDS011;11041;50.854;20.580;2022-11-15T15:14:07;43.42;;;28.15;;
21758;SDS011;11041;50.854;20.580;2022-11-15T15:16:48;44.03;;;28.75;;
21758;SDS011;11041;50.854;20.580;2022-11-15T15:22:02;47.90;;;31.33;;
21758;SDS011;11041;50.854;20.580;2022-11-15T15:24:37;50.22;;;28.05;;
21758;SDS011;11041;50.854;20.580;2022-11-15T15:27:12;50.83;;;30.08;;
21758;SDS011;11041;50.854;20.580;2022-11-15T15:29:44;48.63;;;30.55;;
21758;SDS011;11041;50.854;20.580;2022-11-15T15:32:18;49.05;;;27.77;;
21758;SDS011;11041;50.854;20.580;2022-11-15T15:34:56;43.20;;;25.42;;
21758;SDS011;11041;50.854;20.580;2022-11-15T15:37:29;47.65;;;28.75;;
21758;SDS011;11041;50.854;20.580;2022-11-15T15:40:13;55.25;;;32.45;;
21758;SDS011;11041;50.854;20.580;2022-11-15T15:42:54;64.40;;;31.67;;
21758;SDS011;11041;50.854;20.580;2022-11-15T15:45:30;44.75;;;27.42;;
21758;SDS011;11041;50.854;20.580;2022-11-15T15:47:59;41.53;;;25.88;;
21758;SDS011;11041;50.854;20.580;2022-11-15T15:50:33;49.70;;;26.27;;
21758;SDS011;11041;50.854;20.580;2022-11-15T15:53:05;53.42;;;29.88;;
21758;SDS011;11041;50.854;20.580;2022-11-15T15:55:33;51.08;;;31.10;;
21758;SDS011;11041;50.854;20.580;2022-11-15T15:58:00;54.00;;;29.33;;
21758;SDS011;11041;50.854;20.580;2022-11-15T16:00:27;84.57;;;39.70;;
21758;SDS011;11041;50.854;20.580;2022-11-15T16:02:54;91.18;;;39.00;;
21758;SDS011;11041;50.854;20.580;2022-11-15T16:05:21;112.97;;;48.38;;
21758;SDS011;11041;50.854;20.580;2022-11-15T16:07:48;70.65;;;35.55;;
21758;SDS011;11041;50.854;20.580;2022-11-15T16:10:28;94.80;;;40.85;;
21758;SDS011;11041;50.854;20.580;2022-11-15T16:12:57;87.68;;;39.50;;
21758;SDS011;11041;50.854;20.580;2022-11-15T16:15:25;53.60;;;26.48;;
21758;SDS011;11041;50.854;20.580;2022-11-15T16:17:56;39.78;;;21.88;;
21758;SDS011;11041;50.854;20.580;2022-11-15T16:20:30;45.03;;;24.52;;
21758;SDS011;11041;50.854;20.580;2022-11-15T16:23:15;55.53;;;32.22;;
21758;SDS011;11041;50.854;20.580;2022-11-15T16:25:52;99.32;;;43.03;;
21758;SDS011;11041;50.854;20.580;2022-11-15T16:28:22;52.60;;;27.27;;
21758;SDS011;11041;50.854;20.580;2022-11-15T16:31:05;71.75;;;32.28;;
21758;SDS011;11041;50.854;20.580;2022-11-15T16:33:37;88.00;;;40.33;;
21758;SDS011;11041;50.854;20.580;2022-11-15T16:36:05;116.43;;;45.70;;
21758;SDS011;11041;50.854;20.580;2022-11-15T16:38:48;100.82;;;51.20;;
21758;SDS011;11041;50.854;20.580;2022-11-15T16:41:16;92.13;;;42.63;;
21758;SDS011;11041;50.854;20.580;2022-11-15T16:43:44;76.18;;;35.85;;
21758;SDS011;11041;50.854;20.580;2022-11-15T16:46:18;71.82;;;34.33;;
21758;SDS011;11041;50.854;20.580;2022-11-15T16:48:51;66.20;;;33.58;;
21758;SDS011;11041;50.854;20.580;2022-11-15T16:51:19;57.00;;;32.40;;
21758;SDS011;11041;50.854;20.580;2022-11-15T16:53:45;57.60;;;31.75;;
21758;SDS011;11041;50.854;20.580;2022-11-15T16:56:23;51.72;;;30.70;;
21758;SDS011;11041;50.854;20.580;2022-11-15T16:58:54;44.67;;;26.02;;
21758;SDS011;11041;50.854;20.580;2022-11-15T17:01:24;38.08;;;23.20;;
21758;SDS011;11041;50.854;20.580;2022-11-15T17:04:00;39.13;;;25.15;;
21758;SDS011;11041;50.854;20.580;2022-11-15T17:06:38;43.75;;;25.45;;
21758;SDS011;11041;50.854;20.580;2022-11-15T17:09:08;43.22;;;24.40;;
21758;SDS011;11041;50.854;20.580;2022-11-15T17:11:43;45.95;;;26.15;;
21758;SDS011;11041;50.854;20.580;2022-11-15T17:14:11;41.75;;;23.33;;
21758;SDS011;11041;50.854;20.580;2022-11-15T17:16:38;32.92;;;20.20;;
21758;SDS011;11041;50.854;20.580;2022-11-15T17:19:19;48.83;;;26.98;;
21758;SDS011;11041;50.854;20.580;2022-11-15T17:21:47;28.27;;;19.42;;
21758;SDS011;11041;50.854;20.580;2022-11-15T17:24:14;35.90;;;22.40;;
21758;SDS011;11041;50.854;20.580;2022-11-15T17:26:41;42.28;;;24.17;;
21758;SDS011;11041;50.854;20.580;2022-11-15T17:29:08;40.20;;;25.38;;
21758;SDS011;11041;50.854;20.580;2022-11-15T17:31:35;35.13;;;23.50;;